Time;durP1;ratioP1;P1;durP2;ratioP2;P2;SDS_P1;SDS_P2;PMS_P1;PMS_P2;Temp;Humidity;BMP_temperature;BMP_pressure;BME280_temperature;BME280_humidity;BME280_pressure;Samples;Min_cycle;Max_cycle;Signal;HPM_P1;HPM_P2
2023/01/14 00:01:29;;;;;;;13.77;2.40;;;8.60;99.90;;;;;;5037436;28;88468;-74
2023/01/14 00:03:56;;;;;;;16.98;3.58;;;8.60;99.90;;;;;;5035792;28;91341;-75
2023/01/14 00:06:29;;;;;;;18.65;2.83;;;8.50;99.90;;;;;;5037636;28;88938;-75
2023/01/14 00:09:09;;;;;;;15.98;3.35;;;8.50;99.90;;;;;;5037574;28;87961;-75
2023/01/14 00:11:51;;;;;;;14.07;3.03;;;8.50;99.90;;;;;;5019235;28;89633;-75
2023/01/14 00:14:24;;;;;;;15.35;2.55;;;8.40;99.90;;;;;;5037327;28;89585;-75
2023/01/14 00:16:53;;;;;;;12.73;2.45;;;8.50;99.90;;;;;;5036960;27;89652;-75
2023/01/14 00:19:21;;;;;;;14.52;3.10;;;8.50;99.90;;;;;;5036171;28;88071;-75
2023/01/14 00:21:49;;;;;;;16.48;2.50;;;8.50;99.90;;;;;;5037161;28;88724;-73
2023/01/14 00:24:19;;;;;;;14.45;2.55;;;8.60;99.90;;;;;;5035664;28;91260;-74
2023/01/14 00:26:49;;;;;;;10.30;2.85;;;8.60;99.90;;;;;;5036821;28;88965;-74
2023/01/14 00:29:19;;;;;;;11.43;2.25;;;8.60;99.90;;;;;;5036699;27;88018;-74
2023/01/14 00:31:46;;;;;;;14.77;2.80;;;8.70;99.90;;;;;;5037655;27;88749;-74
2023/01/14 00:34:14;;;;;;;11.32;2.20;;;8.70;99.90;;;;;;5073257;27;91520;-74
2023/01/14 00:36:44;;;;;;;12.90;3.08;;;8.70;99.90;;;;;;5038914;28;91170;-75
2023/01/14 00:39:12;;;;;;;11.88;2.83;;;8.70;99.90;;;;;;5038835;27;89447;-74
2023/01/14 00:41:40;;;;;;;7.78;2.22;;;8.70;99.90;;;;;;5038922;28;91371;-74
2023/01/14 00:44:07;;;;;;;15.90;2.70;;;8.70;99.90;;;;;;5040592;28;88745;-74
2023/01/14 00:46:36;;;;;;;13.27;2.60;;;8.70;99.90;;;;;;5039313;28;88567;-74
2023/01/14 00:49:05;;;;;;;15.85;3.50;;;8.60;99.90;;;;;;5040235;28;88026;-74
2023/01/14 00:51:33;;;;;;;14.75;2.70;;;8.50;99.90;;;;;;5040355;27;88397;-74
2023/01/14 00:54:02;;;;;;;11.40;2.85;;;8.40;99.90;;;;;;5038759;28;88959;-74
2023/01/14 00:56:29;;;;;;;13.35;2.67;;;8.40;99.90;;;;;;5039166;27;91140;-75
2023/01/14 00:58:56;;;;;;;12.30;2.47;;;8.40;99.90;;;;;;5038578;28;89197;-74
2023/01/14 01:01:24;;;;;;;15.43;2.90;;;8.30;99.90;;;;;;5039019;28;88634;-74
2023/01/14 01:03:53;;;;;;;11.27;3.10;;;8.30;99.90;;;;;;5038129;28;92103;-74
2023/01/14 01:06:22;;;;;;;14.20;2.85;;;8.30;99.90;;;;;;5038615;28;92212;-74
2023/01/14 01:08:58;;;;;;;10.98;2.38;;;8.30;99.90;;;;;;5038526;28;88567;-74
2023/01/14 01:11:26;;;;;;;9.90;2.22;;;8.30;99.90;;;;;;5040361;28;88286;-75
2023/01/14 01:13:54;;;;;;;14.65;2.78;;;8.30;99.90;;;;;;5038546;27;88844;-74
2023/01/14 01:16:24;;;;;;;11.63;2.80;;;8.30;99.90;;;;;;5021759;28;90521;-74
2023/01/14 01:18:53;;;;;;;16.25;2.85;;;8.30;99.90;;;;;;5038443;28;89278;-74
2023/01/14 01:21:22;;;;;;;9.88;2.22;;;8.30;99.90;;;;;;5039906;28;87512;-74
2023/01/14 01:23:49;;;;;;;13.90;2.90;;;8.20;99.90;;;;;;5039602;28;88769;-75
2023/01/14 01:26:25;;;;;;;13.75;2.97;;;8.20;99.90;;;;;;5022060;28;88484;-75
2023/01/14 01:28:56;;;;;;;13.82;2.78;;;8.20;99.90;;;;;;5037642;27;89393;-75
2023/01/14 01:31:26;;;;;;;12.10;2.60;;;8.10;99.90;;;;;;5038655;27;88325;-75
2023/01/14 01:33:53;;;;;;;14.10;2.58;;;8.10;99.90;;;;;;5038252;28;89424;-75
2023/01/14 01:36:23;;;;;;;13.02;2.53;;;8.10;99.90;;;;;;5038342;28;88721;-75
2023/01/14 01:38:50;;;;;;;17.73;2.50;;;8.10;99.90;;;;;;5038339;27;88309;-75
2023/01/14 01:41:22;;;;;;;14.95;3.10;;;8.20;99.90;;;;;;5039719;28;88218;-75
2023/01/14 01:44:15;;;;;;;14.20;2.88;;;8.20;99.90;;;;;;5037971;27;88367;-75
2023/01/14 01:46:42;;;;;;;12.32;2.60;;;8.30;99.90;;;;;;5015527;28;88885;-75
2023/01/14 01:49:17;;;;;;;13.60;2.90;;;8.30;99.90;;;;;;5039430;28;88032;-75
2023/01/14 01:51:53;;;;;;;13.48;2.70;;;8.40;99.90;;;;;;5038180;28;90930;-75
2023/01/14 01:54:23;;;;;;;8.68;2.25;;;8.40;99.90;;;;;;5071662;27;92625;-75
2023/01/14 01:56:51;;;;;;;13.02;2.53;;;8.40;99.90;;;;;;5039413;28;89407;-75
2023/01/14 01:59:23;;;;;;;11.88;2.67;;;8.40;99.90;;;;;;5037823;28;88008;-75
2023/01/14 02:01:52;;;;;;;12.70;2.35;;;8.50;99.90;;;;;;5037893;28;91227;-75
2023/01/14 02:04:20;;;;;;;11.90;2.70;;;8.50;99.90;;;;;;5039215;28;89931;-75
2023/01/14 02:06:47;;;;;;;14.60;3.08;;;8.50;99.90;;;;;;5037625;28;90920;-75
2023/01/14 02:09:16;;;;;;;13.75;2.53;;;8.50;99.90;;;;;;5039081;28;88279;-75
2023/01/14 02:12:01;;;;;;;18.48;2.90;;;8.40;99.90;;;;;;5038020;28;90766;-75
2023/01/14 02:14:59;;;;;;;11.18;2.60;;;8.40;99.90;;;;;;5037584;28;90142;-75
2023/01/14 02:17:40;;;;;;;12.52;2.40;;;8.50;99.90;;;;;;5037333;28;91391;-74
2023/01/14 02:20:23;;;;;;;11.75;2.33;;;8.50;99.90;;;;;;5037205;27;89302;-74
2023/01/14 02:23:21;;;;;;;13.50;2.50;;;8.50;99.90;;;;;;5037803;28;87950;-74
2023/01/14 02:26:01;;;;;;;10.13;2.60;;;8.50;99.90;;;;;;5037502;28;91047;-74
2023/01/14 02:28:48;;;;;;;15.77;2.53;;;8.60;99.90;;;;;;5037158;28;90687;-74
2023/01/14 02:31:35;;;;;;;11.02;2.53;;;8.70;99.90;;;;;;5020601;28;89179;-74
2023/01/14 02:34:32;;;;;;;12.80;2.60;;;8.70;99.90;;;;;;5070982;27;88361;-74
2023/01/14 02:37:13;;;;;;;17.45;3.30;;;8.70;99.90;;;;;;5037167;27;90572;-75
2023/01/14 02:40:11;;;;;;;9.75;1.88;;;8.70;99.90;;;;;;5021036;28;91250;-75
2023/01/14 02:45:37;;;;;;;12.20;2.75;;;8.70;99.90;;;;;;5037292;28;90867;-74
2023/01/14 02:48:05;;;;;;;9.48;2.08;;;8.70;99.90;;;;;;5036491;27;92048;-75
2023/01/14 02:50:36;;;;;;;14.80;3.22;;;8.70;99.90;;;;;;5036915;28;91685;-74
2023/01/14 02:53:13;;;;;;;15.75;3.53;;;8.70;99.90;;;;;;5020254;27;89851;-74
2023/01/14 02:55:40;;;;;;;13.32;2.55;;;8.70;99.90;;;;;;5036387;28;89714;-74
2023/01/14 02:58:31;;;;;;;15.05;2.47;;;8.60;99.90;;;;;;5036752;28;90970;-74
2023/01/14 03:01:15;;;;;;;17.48;2.60;;;8.60;99.90;;;;;;5036935;28;91090;-75
2023/01/14 03:04:04;;;;;;;13.15;2.33;;;8.60;99.90;;;;;;5071119;27;89191;-75
2023/01/14 03:07:11;;;;;;;12.52;2.60;;;8.60;99.90;;;;;;5037252;28;91144;-75
2023/01/14 03:09:55;;;;;;;18.20;3.47;;;8.60;99.90;;;;;;5020244;28;91324;-75
2023/01/14 03:12:41;;;;;;;12.73;2.30;;;8.60;99.90;;;;;;5053723;27;91079;-74
2023/01/14 03:15:27;;;;;;;13.52;2.38;;;8.60;99.90;;;;;;5036257;27;89111;-74
2023/01/14 03:17:59;;;;;;;16.77;3.15;;;8.60;99.90;;;;;;5036769;28;90974;-74
2023/01/14 03:20:34;;;;;;;15.23;2.70;;;8.60;99.90;;;;;;5036654;28;91985;-74
2023/01/14 03:23:06;;;;;;;16.52;2.72;;;8.60;99.90;;;;;;5020001;28;90324;-74
2023/01/14 03:25:38;;;;;;;12.63;2.85;;;8.60;99.90;;;;;;5036651;28;88849;-74
2023/01/14 03:28:20;;;;;;;11.75;2.20;;;8.50;99.90;;;;;;5036188;28;90775;-74
2023/01/14 03:30:59;;;;;;;16.17;2.90;;;8.50;99.90;;;;;;5036491;28;91340;-74
2023/01/14 03:33:35;;;;;;;14.32;3.00;;;8.50;99.90;;;;;;5020526;28;88540;-75
2023/01/14 03:36:06;;;;;;;15.07;2.85;;;8.40;99.90;;;;;;5036330;28;88061;-75
2023/01/14 03:38:44;;;;;;;17.38;3.55;;;8.30;99.90;;;;;;5037846;27;88459;-75
2023/01/14 03:42:17;;;;;;;13.88;2.80;;;8.20;99.90;;;;;;5035763;28;92148;-74
2023/01/14 03:44:13;;;;;;;16.73;3.17;;;8.10;99.90;;;;;;5036021;28;92037;-74
2023/01/14 03:46:40;;;;;;;14.80;2.72;;;8.00;99.90;;;;;;5038158;27;88256;-74
2023/01/14 03:49:08;;;;;;;15.60;3.15;;;7.90;99.90;;;;;;5036348;27;91021;-74
2023/01/14 03:51:47;;;;;;;12.90;2.15;;;7.80;99.90;;;;;;5036446;28;88759;-75
2023/01/14 03:54:38;;;;;;;15.25;2.47;;;7.80;99.90;;;;;;5019306;28;91267;-74
2023/01/14 03:57:28;;;;;;;14.90;2.20;;;7.70;99.90;;;;;;5036245;28;89449;-74
2023/01/14 04:00:03;;;;;;;11.23;2.38;;;7.60;99.90;;;;;;5036604;28;91009;-75
2023/01/14 04:02:38;;;;;;;12.32;2.53;;;7.50;99.90;;;;;;5035569;28;88160;-75
2023/01/14 04:05:07;;;;;;;10.98;2.28;;;7.40;99.90;;;;;;5003705;28;91296;-75
2023/01/14 04:07:34;;;;;;;14.75;2.47;;;7.40;99.90;;;;;;5040836;27;88796;-75
2023/01/14 04:10:01;;;;;;;11.80;2.53;;;7.40;99.90;;;;;;5039655;27;88748;-75
2023/01/14 04:12:28;;;;;;;14.85;2.35;;;7.30;99.90;;;;;;5022553;28;91551;-75
2023/01/14 04:17:40;;;;;;;16.13;2.35;;;7.20;99.90;;;;;;5041314;27;88515;-75
2023/01/14 04:20:08;;;;;;;14.30;2.65;;;7.10;99.90;;;;;;5023026;28;88728;-74
2023/01/14 04:22:37;;;;;;;11.50;2.28;;;7.20;99.90;;;;;;5023053;28;91345;-74
2023/01/14 04:25:05;;;;;;;17.85;2.50;;;7.20;99.90;;;;;;5041030;28;93280;-74
2023/01/14 04:27:32;;;;;;;16.67;2.63;;;7.20;99.90;;;;;;5039146;28;89503;-74
2023/01/14 04:29:59;;;;;;;17.80;3.08;;;7.30;99.90;;;;;;5006134;28;91165;-74
2023/01/14 04:32:26;;;;;;;11.70;2.58;;;7.30;99.90;;;;;;5038773;28;89701;-74
2023/01/14 04:34:53;;;;;;;10.32;2.08;;;7.30;99.90;;;;;;5040752;27;89443;-74
2023/01/14 04:37:20;;;;;;;15.82;2.45;;;7.30;99.90;;;;;;5040154;27;88011;-74
2023/01/14 04:39:47;;;;;;;14.48;2.10;;;7.40;99.90;;;;;;5039368;28;88315;-74
2023/01/14 04:42:26;;;;;;;15.30;3.13;;;7.30;99.90;;;;;;5039081;28;89055;-76
2023/01/14 04:45:04;;;;;;;10.50;2.03;;;7.40;99.90;;;;;;5040722;28;88685;-74
2023/01/14 04:47:31;;;;;;;11.32;2.50;;;7.40;99.90;;;;;;5039269;28;88183;-75
2023/01/14 04:50:30;;;;;;;11.30;2.22;;;7.30;99.90;;;;;;5040834;28;88384;-75
2023/01/14 04:52:45;;;;;;;14.18;2.83;;;7.30;99.90;;;;;;5039185;28;88629;-75
2023/01/14 04:55:12;;;;;;;9.75;2.28;;;7.30;99.90;;;;;;5038955;28;91023;-75
2023/01/14 04:57:39;;;;;;;9.07;2.28;;;7.30;99.90;;;;;;5040116;27;88658;-74
2023/01/14 05:00:07;;;;;;;19.58;2.50;;;7.30;99.90;;;;;;5022067;28;91215;-75
2023/01/14 05:02:34;;;;;;;13.02;2.88;;;7.30;99.90;;;;;;5038722;28;90519;-74
2023/01/14 05:05:01;;;;;;;15.18;3.47;;;7.30;99.90;;;;;;5038783;28;91688;-75
2023/01/14 05:07:28;;;;;;;19.02;3.22;;;7.30;99.90;;;;;;5039891;28;87923;-75
2023/01/14 05:09:55;;;;;;;15.55;3.13;;;7.20;99.90;;;;;;5038789;28;91052;-75
2023/01/14 05:12:22;;;;;;;12.75;2.95;;;7.20;99.90;;;;;;5039989;28;88986;-75
2023/01/14 05:14:49;;;;;;;11.45;2.78;;;7.20;99.90;;;;;;5022307;28;91124;-74
2023/01/14 05:17:16;;;;;;;15.93;3.08;;;7.20;99.90;;;;;;5021175;28;88065;-75
2023/01/14 05:19:43;;;;;;;12.90;3.33;;;7.20;99.90;;;;;;5038530;27;88404;-74
2023/01/14 05:22:10;;;;;;;18.90;4.07;;;7.10;99.90;;;;;;5038122;27;92096;-75
2023/01/14 05:24:37;;;;;;;14.88;3.55;;;7.10;99.90;;;;;;5038395;28;89636;-73
2023/01/14 05:27:05;;;;;;;17.60;3.38;;;7.10;99.90;;;;;;5022189;28;88096;-73
2023/01/14 05:29:32;;;;;;;14.10;3.40;;;7.10;99.90;;;;;;5037651;27;88732;-74
2023/01/14 05:31:59;;;;;;;15.43;3.20;;;7.10;99.90;;;;;;5021720;28;91696;-74
2023/01/14 05:34:26;;;;;;;20.77;3.53;;;7.10;99.90;;;;;;5038452;28;88661;-74
2023/01/14 05:36:53;;;;;;;22.27;3.65;;;7.10;99.90;;;;;;5038374;28;89550;-74
2023/01/14 05:39:20;;;;;;;15.65;3.45;;;7.20;99.90;;;;;;5038830;27;88665;-74
2023/01/14 05:47:17;;;;;;;17.98;2.97;;;7.10;99.90;;;;;;5037706;28;89641;-74
2023/01/14 05:49:44;;;;;;;11.80;2.70;;;7.10;99.90;;;;;;5038198;28;88376;-75
2023/01/14 05:52:11;;;;;;;21.90;3.55;;;7.10;99.90;;;;;;5038024;27;91588;-75
2023/01/14 05:54:38;;;;;;;19.90;3.63;;;7.20;99.90;;;;;;5039219;28;88073;-75
2023/01/14 05:57:11;;;;;;;21.15;3.72;;;7.20;99.90;;;;;;5038183;28;88042;-75
2023/01/14 05:59:38;;;;;;;17.75;3.28;;;7.20;99.90;;;;;;5039278;27;88671;-75
2023/01/14 06:07:38;;;;;;;15.13;3.55;;;7.20;99.90;;;;;;5039331;28;87945;-75
2023/01/14 06:10:05;;;;;;;20.02;4.60;;;7.20;99.90;;;;;;5037960;28;89162;-74
2023/01/14 06:13:18;;;;;;;18.92;4.53;;;7.20;99.90;;;;;;5003996;28;92056;-74
2023/01/14 06:15:20;;;;;;;23.13;4.72;;;7.30;99.90;;;;;;5034827;28;89575;-74
2023/01/14 06:17:56;;;;;;;20.77;5.70;;;7.20;99.90;;;;;;5020772;28;89514;-74
2023/01/14 06:20:23;;;;;;;20.00;6.00;;;7.20;99.90;;;;;;5039184;28;88397;-74
2023/01/14 06:22:55;;;;;;;21.48;4.85;;;7.30;99.90;;;;;;5039047;27;88005;-74
2023/01/14 06:25:22;;;;;;;16.35;4.22;;;7.30;99.90;;;;;;5039042;28;88592;-74
2023/01/14 06:27:49;;;;;;;18.92;5.03;;;7.30;99.90;;;;;;5038480;27;87889;-73
2023/01/14 06:30:16;;;;;;;22.02;4.75;;;7.30;99.90;;;;;;5038464;28;88426;-74
2023/01/14 06:32:43;;;;;;;19.95;5.05;;;7.30;99.90;;;;;;5037122;28;91705;-74
2023/01/14 06:35:10;;;;;;;21.52;4.35;;;7.30;99.90;;;;;;5037418;28;91122;-75
2023/01/14 06:37:37;;;;;;;23.08;5.18;;;7.30;99.90;;;;;;5036860;28;88703;-74
2023/01/14 06:40:04;;;;;;;26.77;5.07;;;7.30;99.90;;;;;;5037288;28;91099;-74
2023/01/14 06:42:31;;;;;;;24.17;5.32;;;7.20;99.90;;;;;;5036866;27;91861;-75
2023/01/14 06:44:58;;;;;;;22.40;4.72;;;7.30;99.90;;;;;;5020629;28;91507;-74
2023/01/14 06:47:25;;;;;;;20.83;4.70;;;7.30;99.90;;;;;;5037436;28;88139;-74
2023/01/14 06:49:52;;;;;;;25.25;4.50;;;7.30;99.90;;;;;;5037066;28;88126;-74
2023/01/14 06:52:19;;;;;;;29.30;4.00;;;7.30;99.90;;;;;;5037338;28;88827;-74
2023/01/14 06:54:47;;;;;;;27.00;4.85;;;7.30;99.90;;;;;;5038609;27;88688;-74
2023/01/14 06:57:14;;;;;;;25.70;4.80;;;7.30;99.90;;;;;;5037408;28;88166;-74
2023/01/14 06:59:41;;;;;;;17.38;4.25;;;7.30;99.90;;;;;;5036773;27;91295;-74
2023/01/14 07:02:11;;;;;;;25.90;5.78;;;7.30;99.90;;;;;;5003342;28;91798;-74
2023/01/14 07:04:38;;;;;;;24.48;4.90;;;7.30;99.90;;;;;;5038155;28;89736;-74
2023/01/14 07:07:05;;;;;;;27.80;5.63;;;7.30;99.90;;;;;;5036999;28;88045;-74
2023/01/14 07:09:32;;;;;;;29.73;4.70;;;7.30;99.90;;;;;;5019769;28;94952;-74
2023/01/14 07:11:59;;;;;;;29.90;5.22;;;7.30;99.90;;;;;;5038460;28;88834;-74
2023/01/14 07:14:26;;;;;;;19.73;4.07;;;7.40;99.90;;;;;;5020139;28;91459;-74
2023/01/14 07:16:54;;;;;;;22.30;4.05;;;7.40;99.90;;;;;;5070464;27;89673;-74
2023/01/14 07:19:21;;;;;;;17.55;4.35;;;7.40;99.90;;;;;;5020588;28;87647;-74
2023/01/14 07:21:48;;;;;;;31.00;5.95;;;7.40;99.90;;;;;;5038072;28;88841;-74
2023/01/14 07:24:15;;;;;;;24.25;5.25;;;7.40;99.90;;;;;;5038102;27;88703;-74
2023/01/14 07:26:42;;;;;;;23.67;4.50;;;7.40;99.90;;;;;;5037620;28;88868;-74
2023/01/14 07:29:09;;;;;;;18.77;3.95;;;7.50;99.90;;;;;;5036435;28;90585;-74
2023/01/14 07:31:36;;;;;;;22.50;4.43;;;7.60;99.90;;;;;;5036399;27;89151;-74
2023/01/14 07:34:04;;;;;;;19.38;4.18;;;7.60;99.90;;;;;;5036500;28;91085;-75
2023/01/14 07:36:30;;;;;;;19.50;4.28;;;7.60;99.90;;;;;;5038031;28;87903;-75
2023/01/14 07:38:58;;;;;;;23.88;4.57;;;7.60;99.90;;;;;;5036125;28;90962;-75
2023/01/14 07:41:25;;;;;;;19.55;4.38;;;7.60;99.90;;;;;;5037250;28;97169;-75
2023/01/14 07:43:52;;;;;;;23.23;4.47;;;7.60;99.90;;;;;;5036461;28;90501;-75
2023/01/14 07:46:19;;;;;;;24.27;5.40;;;7.60;99.90;;;;;;5036528;28;87994;-74
2023/01/14 07:48:46;;;;;;;27.95;4.72;;;7.60;99.90;;;;;;5037628;28;88510;-74
2023/01/14 07:51:15;;;;;;;19.65;4.30;;;7.70;99.90;;;;;;5036120;28;89577;-74
2023/01/14 07:53:42;;;;;;;20.88;5.75;;;7.70;99.90;;;;;;5037531;28;89452;-74
2023/01/14 07:56:09;;;;;;;21.83;4.32;;;7.70;99.90;;;;;;5019599;28;88034;-75
2023/01/14 07:58:36;;;;;;;21.48;5.30;;;7.70;99.90;;;;;;5036239;28;88437;-75
2023/01/14 08:01:10;;;;;;;21.77;4.85;;;7.80;99.90;;;;;;5070325;27;92339;-75
2023/01/14 08:03:37;;;;;;;22.42;4.07;;;7.80;99.90;;;;;;5037789;28;88762;-74
2023/01/14 08:06:06;;;;;;;21.50;4.35;;;7.80;99.90;;;;;;5019593;28;88052;-74
2023/01/14 08:08:33;;;;;;;21.83;4.05;;;7.80;99.90;;;;;;5036620;28;91401;-74
2023/01/14 08:11:01;;;;;;;15.18;3.78;;;7.90;99.90;;;;;;5037102;28;88902;-74
2023/01/14 08:13:30;;;;;;;28.73;4.97;;;7.90;99.90;;;;;;5037260;28;88598;-74
2023/01/14 08:15:59;;;;;;;13.70;3.70;;;8.00;99.90;;;;;;5035544;28;89274;-74
2023/01/14 08:18:27;;;;;;;19.10;4.15;;;8.00;99.90;;;;;;5037099;28;88260;-74
2023/01/14 08:20:58;;;;;;;16.25;3.67;;;8.00;99.90;;;;;;5035951;28;88882;-74
2023/01/14 08:23:25;;;;;;;15.73;4.20;;;8.00;99.90;;;;;;5035807;28;88957;-74
2023/01/14 08:25:53;;;;;;;20.65;4.40;;;8.10;99.90;;;;;;5035936;28;88022;-74
2023/01/14 08:28:20;;;;;;;21.20;3.97;;;8.10;99.90;;;;;;5035590;28;91271;-74
2023/01/14 08:30:47;;;;;;;24.45;4.32;;;8.10;99.90;;;;;;5019140;28;89001;-74
2023/01/14 08:33:14;;;;;;;21.67;4.47;;;8.10;99.90;;;;;;5036125;27;90286;-73
2023/01/14 08:35:41;;;;;;;19.55;4.40;;;8.20;99.90;;;;;;5035995;28;88553;-73
2023/01/14 08:38:10;;;;;;;12.05;3.80;;;8.20;99.90;;;;;;5035691;28;90858;-74
2023/01/14 08:40:37;;;;;;;18.92;3.67;;;8.20;99.90;;;;;;5036865;27;89253;-74
2023/01/14 08:43:04;;;;;;;19.60;3.60;;;8.20;99.90;;;;;;5035788;28;91864;-74
2023/01/14 08:45:31;;;;;;;16.92;3.20;;;8.30;99.90;;;;;;5036836;27;87935;-73
2023/01/14 08:47:58;;;;;;;15.82;3.47;;;8.30;99.90;;;;;;5035462;28;88292;-73
2023/01/14 08:50:25;;;;;;;15.05;3.97;;;8.30;99.90;;;;;;5035997;28;89158;-74
2023/01/14 08:52:52;;;;;;;18.88;3.60;;;8.30;99.90;;;;;;5037372;27;88700;-74
2023/01/14 08:55:19;;;;;;;14.55;3.88;;;8.30;99.90;;;;;;5040797;27;88234;-74
2023/01/14 08:57:46;;;;;;;18.92;3.90;;;8.40;99.90;;;;;;5022431;28;89986;-74
2023/01/14 09:00:14;;;;;;;19.25;3.28;;;8.40;99.90;;;;;;5038818;28;89290;-73
2023/01/14 09:02:41;;;;;;;14.30;2.88;;;8.40;99.90;;;;;;5038844;28;91076;-74
2023/01/14 09:05:08;;;;;;;14.52;3.08;;;8.40;99.90;;;;;;5021515;28;89491;-74
2023/01/14 09:18:41;;;;;;;19.27;9.10;;;8.30;99.90;;;;;;5038971;28;88392;-75
2023/01/14 09:21:08;;;;;;;17.92;3.85;;;8.30;99.90;;;;;;5039784;27;89219;-75
2023/01/14 09:23:35;;;;;;;18.45;3.33;;;8.30;99.90;;;;;;5038871;28;89150;-74
2023/01/14 09:26:02;;;;;;;15.98;3.30;;;8.30;99.90;;;;;;5021968;28;88409;-75
2023/01/14 09:28:29;;;;;;;16.60;3.55;;;8.30;99.90;;;;;;5037486;28;101800;-74
2023/01/14 09:30:56;;;;;;;18.15;3.88;;;8.30;99.90;;;;;;5039136;27;88804;-74
2023/01/14 09:33:23;;;;;;;14.32;4.13;;;8.30;99.90;;;;;;5004873;28;92003;-74
2023/01/14 09:35:50;;;;;;;14.32;3.50;;;8.30;99.90;;;;;;5039885;27;88421;-75
2023/01/14 09:38:17;;;;;;;15.38;4.07;;;8.30;99.90;;;;;;5038406;28;88048;-74
2023/01/14 09:40:44;;;;;;;15.02;4.15;;;8.30;99.90;;;;;;5039534;27;89070;-75
2023/01/14 09:43:17;;;;;;;14.20;3.83;;;8.30;99.90;;;;;;5021208;28;91214;-75
2023/01/14 09:45:47;;;;;;;11.07;3.80;;;8.30;99.90;;;;;;5038361;28;88047;-75
2023/01/14 09:48:20;;;;;;;14.65;3.67;;;8.30;99.90;;;;;;5039636;28;88291;-75
2023/01/14 09:51:06;;;;;;;14.18;3.55;;;8.30;99.90;;;;;;5037978;28;91016;-75
2023/01/14 09:54:02;;;;;;;30.52;22.13;;;8.30;99.90;;;;;;5038340;28;88436;-74
2023/01/14 09:56:49;;;;;;;23.95;15.00;;;8.30;99.90;;;;;;5036945;28;89652;-75
2023/01/14 09:59:35;;;;;;;20.52;8.85;;;8.30;99.90;;;;;;5036729;28;91217;-75
2023/01/14 10:02:23;;;;;;;17.60;7.03;;;8.30;99.90;;;;;;5039078;27;89160;-75
2023/01/14 10:05:32;;;;;;;13.40;4.40;;;8.40;99.90;;;;;;5039179;27;88938;-73
2023/01/14 10:08:05;;;;;;;13.85;3.33;;;8.40;99.90;;;;;;5039291;27;88038;-73
2023/01/14 10:10:35;;;;;;;15.20;3.60;;;8.30;99.90;;;;;;5021258;28;91222;-74
2023/01/14 10:13:28;;;;;;;19.15;6.50;;;8.30;99.90;;;;;;5037504;28;88925;-74
2023/01/14 10:16:16;;;;;;;14.88;3.97;;;8.30;99.90;;;;;;5031358;28;88912;-74
2023/01/14 10:19:11;;;;;;;12.52;4.90;;;8.30;99.90;;;;;;5039369;28;88414;-74
2023/01/14 10:22:10;;;;;;;13.75;6.90;;;8.40;99.90;;;;;;5037580;28;91076;-74
2023/01/14 10:24:41;;;;;;;10.95;4.80;;;8.30;99.90;;;;;;5028228;28;92022;-74
2023/01/14 10:27:15;;;;;;;13.65;4.40;;;8.30;99.90;;;;;;5037183;28;91862;-73
2023/01/14 10:29:43;;;;;;;14.23;6.95;;;8.30;99.90;;;;;;5037101;28;89318;-74
2023/01/14 10:32:14;;;;;;;19.15;5.20;;;8.40;99.90;;;;;;5038694;27;88213;-74
2023/01/14 10:34:42;;;;;;;12.43;6.05;;;8.50;99.90;;;;;;5038895;28;89166;-74
2023/01/14 10:37:10;;;;;;;15.40;7.97;;;8.50;99.90;;;;;;5038593;27;88613;-74
2023/01/14 10:39:47;;;;;;;8.45;5.15;;;8.50;99.90;;;;;;5037385;28;88079;-74
2023/01/14 10:42:15;;;;;;;15.48;5.20;;;8.50;99.90;;;;;;5038761;27;88592;-74
2023/01/14 10:44:45;;;;;;;14.25;5.35;;;8.40;99.90;;;;;;5037397;28;88760;-74
2023/01/14 10:47:16;;;;;;;7.03;3.85;;;8.40;99.90;;;;;;5020137;28;91237;-74
2023/01/14 10:50:15;;;;;;;11.43;4.32;;;8.50;99.90;;;;;;5038270;28;88769;-74
2023/01/14 10:52:43;;;;;;;9.13;4.03;;;8.60;99.90;;;;;;5038708;27;88322;-74
2023/01/14 10:55:16;;;;;;;7.82;3.90;;;8.50;99.90;;;;;;5036995;28;88908;-74
2023/01/14 10:58:15;;;;;;;8.43;3.40;;;8.60;99.90;;;;;;5037068;28;88657;-74
2023/01/14 11:00:46;;;;;;;5.60;3.22;;;8.60;99.90;;;;;;5038359;28;88042;-74
2023/01/14 11:03:28;;;;;;;11.13;5.80;;;8.60;99.90;;;;;;5038263;28;88321;-74
2023/01/14 11:06:07;;;;;;;11.18;4.50;;;8.70;99.90;;;;;;5038182;27;89105;-74
2023/01/14 11:08:41;;;;;;;23.40;20.20;;;8.80;99.90;;;;;;5037758;28;88748;-74
2023/01/14 11:11:11;;;;;;;10.90;8.23;;;8.80;99.90;;;;;;5037549;28;88436;-74
2023/01/14 11:13:44;;;;;;;11.88;8.38;;;8.90;99.90;;;;;;5036521;28;91448;-74
2023/01/14 11:16:27;;;;;;;6.07;4.40;;;9.00;99.90;;;;;;5035876;28;89720;-74
2023/01/14 11:18:59;;;;;;;6.00;3.50;;;9.00;99.90;;;;;;5038302;27;89145;-75
2023/01/14 11:21:39;;;;;;;8.38;3.85;;;9.10;99.90;;;;;;5038124;27;88019;-74
2023/01/14 11:24:28;;;;;;;7.60;4.18;;;9.20;99.90;;;;;;5037847;27;88946;-74
2023/01/14 11:27:04;;;;;;;28.80;21.45;;;9.20;99.90;;;;;;5038256;27;88801;-75
2023/01/14 11:29:36;;;;;;;32.60;25.40;;;9.20;99.90;;;;;;5018611;28;92259;-74
2023/01/14 11:32:14;;;;;;;8.50;4.03;;;9.20;99.90;;;;;;5035781;28;92059;-75
2023/01/14 11:34:59;;;;;;;6.80;3.33;;;9.20;99.90;;;;;;5036963;28;91164;-75
2023/01/14 11:37:47;;;;;;;5.60;2.65;;;9.30;99.90;;;;;;5036254;28;91219;-75
2023/01/14 11:43:25;;;;;;;5.22;2.55;;;9.20;99.90;;;;;;5035624;28;89438;-74
2023/01/14 11:46:14;;;;;;;4.93;2.35;;;9.20;99.90;;;;;;5037629;27;88492;-74
2023/01/14 11:48:42;;;;;;;5.05;2.58;;;9.30;99.90;;;;;;5036789;28;88592;-74
2023/01/14 11:51:20;;;;;;;5.18;3.00;;;9.20;99.90;;;;;;5036202;28;88454;-74
2023/01/14 11:53:50;;;;;;;3.08;1.70;;;9.30;99.90;;;;;;5037536;27;88039;-74
2023/01/14 11:56:37;;;;;;;5.47;2.78;;;9.30;99.90;;;;;;5037287;27;88300;-74
2023/01/14 11:59:24;;;;;;;5.72;2.60;;;9.30;99.90;;;;;;5036254;28;91359;-74
2023/01/14 12:02:02;;;;;;;5.95;2.17;;;9.30;99.90;;;;;;5037759;27;88636;-74
2023/01/14 12:04:44;;;;;;;2.83;2.03;;;9.30;99.90;;;;;;5037646;27;88041;-74
2023/01/14 12:07:17;;;;;;;5.45;2.30;;;9.30;99.90;;;;;;5018945;28;91238;-74
2023/01/14 12:09:52;;;;;;;7.25;2.47;;;9.30;99.90;;;;;;5037196;28;89463;-74
2023/01/14 12:19:00;;;;;;;3.40;2.30;;;9.30;99.90;;;;;;5037413;27;88469;-74
2023/01/14 12:21:38;;;;;;;4.75;2.83;;;9.30;99.90;;;;;;5037324;27;88881;-74
2023/01/14 12:24:20;;;;;;;3.70;2.45;;;9.30;99.90;;;;;;5037424;27;88560;-74
2023/01/14 12:26:50;;;;;;;4.65;2.95;;;9.20;99.90;;;;;;5036477;27;87975;-74
2023/01/14 12:29:23;;;;;;;7.00;3.17;;;9.20;99.90;;;;;;5038764;28;100914;-74
2023/01/14 12:31:59;;;;;;;4.95;2.40;;;9.30;99.90;;;;;;5039899;28;89021;-74
2023/01/14 12:34:44;;;;;;;4.50;2.50;;;9.20;99.90;;;;;;5039220;28;91274;-74
2023/01/14 12:37:32;;;;;;;5.93;3.15;;;9.20;99.90;;;;;;5040373;28;88771;-74
2023/01/14 12:46:13;;;;;;;2.90;2.35;;;9.30;99.90;;;;;;5040614;28;87919;-74
2023/01/14 12:48:40;;;;;;;3.40;1.92;;;9.20;99.90;;;;;;5040370;27;88368;-73
2023/01/14 12:51:19;;;;;;;5.88;2.25;;;9.20;99.90;;;;;;5040557;27;88249;-74
2023/01/14 12:54:20;;;;;;;6.30;2.80;;;9.30;99.90;;;;;;5039152;28;88893;-74
2023/01/14 12:56:54;;;;;;;3.58;1.73;;;9.40;99.90;;;;;;5040452;28;88543;-74
2023/01/14 12:59:24;;;;;;;;;;;9.30;99.90;;;;;;5040719;27;87899;-73
2023/01/14 13:02:01;;;;;;;1.55;1.45;;;9.30;99.90;;;;;;5041431;28;88266;-74
2023/01/14 13:04:45;;;;;;;41.53;20.25;;;9.30;99.90;;;;;;5039896;28;89550;-74
2023/01/14 13:07:23;;;;;;;50.50;30.85;;;9.50;99.90;;;;;;5038001;28;91921;-73
2023/01/14 13:09:54;;;;;;;6.85;5.35;;;9.50;99.90;;;;;;5039528;28;88990;-74
2023/01/14 13:12:48;;;;;;;2.42;1.60;;;9.60;99.90;;;;;;5038520;28;91312;-74
2023/01/14 13:15:18;;;;;;;2.40;1.80;;;9.70;99.90;;;;;;5037865;28;89195;-74
2023/01/14 13:17:56;;;;;;;3.08;1.50;;;9.70;99.90;;;;;;5039824;27;89568;-74
2023/01/14 13:20:30;;;;;;;1.73;1.63;;;9.80;99.90;;;;;;5038352;28;88674;-74
2023/01/14 13:22:58;;;;;;;3.25;1.48;;;9.80;99.90;;;;;;5039224;28;88265;-73
2023/01/14 13:25:32;;;;;;;2.13;1.35;;;9.80;99.90;;;;;;5038309;28;89852;-74
2023/01/14 13:28:11;;;;;;;;;;;9.90;99.90;;;;;;5022159;28;91330;-74
2023/01/14 13:30:43;;;;;;;2.70;1.63;;;9.80;99.90;;;;;;5039506;28;88845;-74
2023/01/14 13:34:08;;;;;;;1.88;1.33;;;9.80;99.90;;;;;;5039974;27;88355;-74
2023/01/14 13:36:35;;;;;;;1.30;1.20;;;9.90;99.90;;;;;;5000126;28;88912;-74
2023/01/14 13:39:05;;;;;;;2.55;1.30;;;9.90;99.90;;;;;;5000054;28;88634;-74
2023/01/14 13:41:45;;;;;;;1.55;1.30;;;9.90;99.90;;;;;;5030792;28;88357;-74
2023/01/14 13:44:26;;;;;;;2.03;1.65;;;10.00;99.90;;;;;;5038234;28;91369;-74
2023/01/14 13:46:59;;;;;;;1.33;1.08;;;10.00;99.90;;;;;;5039811;27;88878;-74
2023/01/14 13:49:37;;;;;;;1.85;1.33;;;10.00;99.90;;;;;;5038116;28;91272;-74
2023/01/14 13:52:12;;;;;;;3.17;1.38;;;10.00;99.90;;;;;;5039538;27;87939;-74
2023/01/14 13:54:39;;;;;;;2.90;1.85;;;10.10;99.90;;;;;;5032785;27;88446;-74
2023/01/14 13:57:11;;;;;;;2.50;1.27;;;10.10;99.90;;;;;;5001830;28;89456;-74
2023/01/14 13:59:41;;;;;;;2.35;1.15;;;10.20;99.90;;;;;;5017530;28;92284;-74
2023/01/14 14:02:45;;;;;;;1.83;1.10;;;10.20;99.90;;;;;;5019129;28;87929;-74